createdAt,value
2019-05-20T00:00:24.696Z,6.17
2019-05-20T00:02:54.142Z,6.80
2019-05-20T00:05:23.649Z,6.35
2019-05-20T00:07:53.118Z,6.20
2019-05-20T00:10:22.552Z,6.30
2019-05-20T00:12:52.004Z,6.37
2019-05-20T00:15:21.431Z,6.30
2019-05-20T00:17:50.863Z,5.60
2019-05-20T00:20:20.315Z,5.83
2019-05-20T00:22:49.737Z,5.92
2019-05-20T00:25:19.175Z,5.90
2019-05-20T00:27:48.615Z,5.67
2019-05-20T00:30:18.142Z,6.05
2019-05-20T00:32:47.594Z,5.50
2019-05-20T00:35:17.033Z,5.50
2019-05-20T00:37:46.461Z,5.30
2019-05-20T00:40:16.586Z,5.70
2019-05-20T00:42:46.018Z,4.70
2019-05-20T00:45:15.560Z,4.60
2019-05-20T00:47:44.996Z,4.28
2019-05-20T00:50:14.524Z,4.42
2019-05-20T00:52:43.939Z,4.42
2019-05-20T00:55:21.534Z,4.20
2019-05-20T00:57:50.951Z,4.08
2019-05-20T01:03:03.465Z,3.62
2019-05-20T01:05:32.890Z,3.72
2019-05-20T01:08:02.326Z,4.10
2019-05-20T01:10:31.764Z,3.05
2019-05-20T01:13:01.206Z,3.77
2019-05-20T01:15:30.618Z,3.37
2019-05-20T01:17:59.964Z,3.85
2019-05-20T01:20:29.387Z,3.33
2019-05-20T01:22:58.737Z,3.33
2019-05-20T01:25:28.161Z,3.60
2019-05-20T01:27:57.563Z,3.35
2019-05-20T01:30:27.010Z,3.60
2019-05-20T01:32:56.442Z,3.37
2019-05-20T01:35:25.850Z,3.47
2019-05-20T01:37:55.273Z,3.25
2019-05-20T01:40:24.689Z,3.17
2019-05-20T01:42:54.044Z,2.83
2019-05-20T01:45:23.459Z,3.25
2019-05-20T01:47:52.899Z,3.50
2019-05-20T01:50:22.336Z,3.10
2019-05-20T01:52:51.758Z,3.50
2019-05-20T01:55:21.125Z,3.85
2019-05-20T01:57:50.550Z,3.60
2019-05-20T02:00:19.968Z,3.80
2019-05-20T02:02:49.479Z,3.52
2019-05-20T02:05:18.954Z,3.77
2019-05-20T02:07:48.371Z,3.87
2019-05-20T02:10:17.802Z,4.03
2019-05-20T02:12:47.235Z,3.42
2019-05-20T02:15:18.430Z,3.95
2019-05-20T02:17:47.865Z,3.67
2019-05-20T02:20:17.268Z,3.95
2019-05-20T02:22:46.717Z,4.00
2019-05-20T02:25:16.062Z,4.10
2019-05-20T02:27:45.495Z,4.08
2019-05-20T02:30:15.131Z,4.15
2019-05-20T02:32:44.564Z,4.40
2019-05-20T02:35:14.176Z,4.25
2019-05-20T02:37:43.598Z,4.40
2019-05-20T02:40:13.534Z,4.70
2019-05-20T02:42:42.983Z,4.78
2019-05-20T02:45:12.718Z,4.62
2019-05-20T02:47:42.130Z,4.67
2019-05-20T02:50:11.557Z,4.85
2019-05-20T02:52:40.999Z,4.30
2019-05-20T02:55:10.648Z,4.47
2019-05-20T02:57:40.117Z,4.70
2019-05-20T03:00:09.877Z,4.22
2019-05-20T03:02:39.236Z,4.50
2019-05-20T03:05:08.959Z,5.08
2019-05-20T03:07:38.396Z,4.50
2019-05-20T03:10:08.058Z,4.72
2019-05-20T03:12:37.479Z,4.00
2019-05-20T03:15:07.797Z,4.22
2019-05-20T03:17:37.235Z,4.12
2019-05-20T03:20:06.601Z,4.45
2019-05-20T03:22:36.024Z,4.10
2019-05-20T03:25:08.748Z,4.50
2019-05-20T03:27:38.630Z,4.33
2019-05-20T03:30:08.647Z,4.55
2019-05-20T03:32:38.069Z,4.50
2019-05-20T03:35:08.158Z,4.17
2019-05-20T03:37:37.569Z,5.15
2019-05-20T03:40:07.490Z,4.37
2019-05-20T03:42:36.926Z,4.78
2019-05-20T03:45:06.674Z,5.22
2019-05-20T03:47:36.063Z,4.80
2019-05-20T03:50:08.333Z,4.83
2019-05-20T03:52:37.762Z,5.10
2019-05-20T03:55:08.740Z,4.65
2019-05-20T03:57:38.092Z,5.80
2019-05-20T04:00:08.661Z,9.15
2019-05-20T04:02:38.087Z,5.65
2019-05-20T04:05:07.631Z,5.33
2019-05-20T04:07:36.992Z,6.30
2019-05-20T04:10:07.110Z,5.17
2019-05-20T04:12:36.540Z,5.37
2019-05-20T04:15:06.845Z,5.55
2019-05-20T04:17:36.252Z,6.17
2019-05-20T04:20:07.641Z,5.75
2019-05-20T04:22:37.065Z,6.22
2019-05-20T04:25:07.763Z,6.08
2019-05-20T04:27:37.154Z,5.78
2019-05-20T04:30:08.108Z,6.72
2019-05-20T04:32:37.440Z,7.60
2019-05-20T04:35:21.294Z,6.17
2019-05-20T04:37:38.239Z,6.42
2019-05-20T04:40:07.803Z,5.92
2019-05-20T04:42:37.239Z,6.40
2019-05-20T04:45:07.867Z,8.33
2019-05-20T04:47:37.408Z,8.08
2019-05-20T04:50:10.002Z,7.97
2019-05-20T04:52:39.408Z,7.95
2019-05-20T04:55:09.280Z,7.83
2019-05-20T04:57:38.691Z,7.70
2019-05-20T05:00:09.929Z,6.90
2019-05-20T05:02:43.244Z,8.13
2019-05-20T05:05:10.707Z,6.60
2019-05-20T05:07:40.150Z,6.83
2019-05-20T05:10:10.295Z,7.03
2019-05-20T05:12:39.716Z,7.47
2019-05-20T05:15:10.760Z,7.90
2019-05-20T05:17:40.173Z,7.67
2019-05-20T05:20:18.150Z,6.37
2019-05-20T05:22:42.507Z,6.00
2019-05-20T05:25:12.207Z,6.20
2019-05-20T05:27:41.574Z,6.97
2019-05-20T05:30:11.090Z,4.95
2019-05-20T05:32:43.942Z,6.45
2019-05-20T05:35:17.859Z,5.45
2019-05-20T05:37:47.857Z,4.87
2019-05-20T05:40:19.334Z,5.42
2019-05-20T05:42:48.772Z,4.97
2019-05-20T05:45:21.099Z,6.05
2019-05-20T05:47:50.509Z,6.33
2019-05-20T05:50:19.951Z,5.72
2019-05-20T05:52:49.374Z,5.85
2019-05-20T05:55:18.737Z,5.58
2019-05-20T05:57:48.205Z,5.33
2019-05-20T06:00:17.998Z,5.70
2019-05-20T06:02:47.427Z,6.03
2019-05-20T06:05:16.845Z,5.00
2019-05-20T06:07:46.213Z,5.30
2019-05-20T06:10:16.321Z,5.20
2019-05-20T06:12:45.678Z,5.20
2019-05-20T06:15:16.197Z,5.08
2019-05-20T06:17:45.687Z,12.18
2019-05-20T06:20:16.293Z,6.53
2019-05-20T06:22:45.863Z,6.00
2019-05-20T06:25:15.704Z,5.17
2019-05-20T06:27:45.126Z,5.10
2019-05-20T06:30:15.474Z,5.60
2019-05-20T06:32:44.807Z,7.00
2019-05-20T06:35:15.838Z,5.92
2019-05-20T06:37:47.044Z,6.77
2019-05-20T06:40:16.770Z,6.67
2019-05-20T06:42:46.009Z,7.30
2019-05-20T06:45:15.409Z,8.33
2019-05-20T06:47:44.755Z,7.58
2019-05-20T06:50:13.802Z,7.83
2019-05-20T06:52:42.947Z,9.53
2019-05-20T06:55:12.672Z,6.80
2019-05-20T06:57:42.075Z,6.25
2019-05-20T07:00:12.850Z,6.70
2019-05-20T07:02:41.989Z,6.27
2019-05-20T07:05:11.821Z,6.93
2019-05-20T07:07:40.943Z,6.93
2019-05-20T07:10:10.497Z,6.77
2019-05-20T07:12:41.514Z,6.73
2019-05-20T07:15:10.984Z,6.20
2019-05-20T07:17:40.383Z,7.00
2019-05-20T07:20:10.059Z,6.83
2019-05-20T07:22:54.562Z,6.57
2019-05-20T07:25:10.329Z,7.17
2019-05-20T07:27:39.502Z,5.80
2019-05-20T07:30:09.487Z,6.30
2019-05-20T07:32:38.516Z,5.67
2019-05-20T07:35:09.049Z,5.87
2019-05-20T07:37:38.136Z,5.20
2019-05-20T07:40:07.506Z,5.63
2019-05-20T07:42:36.842Z,6.00
2019-05-20T07:45:08.450Z,6.27
2019-05-20T07:47:37.789Z,6.33
2019-05-20T07:50:09.000Z,5.60
2019-05-20T07:52:38.714Z,5.47
2019-05-20T07:55:08.245Z,5.50
2019-05-20T07:57:40.574Z,6.33
2019-05-20T08:00:10.732Z,5.30
2019-05-20T08:02:40.278Z,5.80
2019-05-20T08:05:10.528Z,5.13
2019-05-20T08:07:51.469Z,4.80
2019-05-20T08:10:10.711Z,5.50
2019-05-20T08:12:39.851Z,5.20
2019-05-20T08:15:09.532Z,5.67
2019-05-20T08:17:38.696Z,5.17
2019-05-20T08:20:08.111Z,5.77
2019-05-20T08:22:37.235Z,5.57
2019-05-20T08:25:07.581Z,4.37
2019-05-20T08:27:36.772Z,5.97
2019-05-20T08:30:14.016Z,6.07
2019-05-20T08:32:41.943Z,4.87
2019-05-20T08:35:11.317Z,5.67
2019-05-20T08:37:45.393Z,6.37
2019-05-20T08:40:11.257Z,5.80
2019-05-20T08:42:40.308Z,6.03
2019-05-20T08:45:09.698Z,5.03
2019-05-20T08:47:38.836Z,5.20
2019-05-20T08:50:14.976Z,5.20
2019-05-20T08:52:39.996Z,5.10
2019-05-20T08:55:09.130Z,5.73
2019-05-20T08:57:38.231Z,6.03
2019-05-20T09:00:10.269Z,5.30
2019-05-20T09:02:39.415Z,5.90
2019-05-20T09:05:08.545Z,6.20
2019-05-20T09:07:37.690Z,4.47
2019-05-20T09:10:07.130Z,5.23
2019-05-20T09:12:36.229Z,4.43
2019-05-20T09:15:07.072Z,4.67
2019-05-20T09:17:38.840Z,5.20
2019-05-20T09:20:09.225Z,4.77
2019-05-20T09:22:38.573Z,4.73
2019-05-20T09:25:09.478Z,5.33
2019-05-20T09:27:38.871Z,4.70
2019-05-20T09:30:09.252Z,5.67
2019-05-20T09:32:42.826Z,5.40
2019-05-20T09:35:09.851Z,4.50
2019-05-20T09:37:38.939Z,5.10
2019-05-20T09:40:09.735Z,5.93
2019-05-20T09:42:41.091Z,5.20
2019-05-20T09:45:09.825Z,6.27
2019-05-20T09:47:39.028Z,8.90
2019-05-20T09:50:08.462Z,5.13
2019-05-20T09:52:37.522Z,5.47
2019-05-20T09:55:07.451Z,5.00
2019-05-20T09:57:36.597Z,5.63
2019-05-20T10:00:07.519Z,4.30
2019-05-20T10:02:38.246Z,4.23
2019-05-20T10:05:07.653Z,4.20
2019-05-20T10:07:36.837Z,6.13
2019-05-20T10:10:07.453Z,4.83
2019-05-20T10:12:46.062Z,4.60
2019-05-20T10:15:07.968Z,4.80
2019-05-20T10:17:37.103Z,4.70
2019-05-20T10:20:10.012Z,4.57
2019-05-20T10:22:39.169Z,4.57
2019-05-20T10:25:09.322Z,4.50
2019-05-20T10:27:38.452Z,5.00
2019-05-20T10:30:08.751Z,4.93
2019-05-20T10:32:37.896Z,4.37
2019-05-20T10:35:07.757Z,4.50
2019-05-20T10:37:36.877Z,4.70
2019-05-20T10:40:06.815Z,4.43
2019-05-20T10:42:35.938Z,5.60
2019-05-20T10:45:06.474Z,4.47
2019-05-20T10:47:35.614Z,4.60
2019-05-20T10:50:06.165Z,5.33
2019-05-20T10:52:35.226Z,4.80
2019-05-20T10:55:08.133Z,4.40
2019-05-20T10:57:37.286Z,4.93
2019-05-20T11:00:08.417Z,5.07
2019-05-20T11:02:37.484Z,4.60
2019-05-20T11:05:08.515Z,5.53
2019-05-20T11:07:37.636Z,5.40
2019-05-20T11:10:07.620Z,9.50
2019-05-20T11:12:36.904Z,4.80
2019-05-20T11:15:07.602Z,4.83
2019-05-20T11:17:36.791Z,16.20
2019-05-20T11:20:09.771Z,5.07
2019-05-20T11:22:38.892Z,4.90
2019-05-20T11:25:08.474Z,4.83
2019-05-20T11:27:37.595Z,4.43
2019-05-20T11:30:07.964Z,4.43
2019-05-20T11:32:37.103Z,4.03
2019-05-20T11:35:08.241Z,4.30
2019-05-20T11:37:37.367Z,4.40
2019-05-20T11:40:09.718Z,4.63
2019-05-20T11:42:39.453Z,4.30
2019-05-20T11:45:09.615Z,4.07
2019-05-20T11:47:38.733Z,4.10
2019-05-20T11:50:09.285Z,4.67
2019-05-20T11:52:38.331Z,4.30
2019-05-20T11:55:08.686Z,4.23
2019-05-20T11:57:37.930Z,4.30
2019-05-20T12:00:08.057Z,4.60
2019-05-20T12:02:37.174Z,9.00
2019-05-20T12:05:07.472Z,3.83
2019-05-20T12:07:36.509Z,4.23
2019-05-20T12:10:09.695Z,4.50
2019-05-20T12:12:38.840Z,4.10
2019-05-20T12:15:09.663Z,3.67
2019-05-20T12:17:38.806Z,3.90
2019-05-20T12:20:10.881Z,4.10
2019-05-20T12:22:39.684Z,4.17
2019-05-20T12:25:09.355Z,4.67
2019-05-20T12:27:38.476Z,4.10
2019-05-20T12:30:08.249Z,4.50
2019-05-20T12:32:37.294Z,4.57
2019-05-20T12:35:08.070Z,4.63
2019-05-20T12:37:37.175Z,4.10
2019-05-20T12:40:08.394Z,4.70
2019-05-20T12:42:38.261Z,4.67
2019-05-20T12:45:08.971Z,4.80
2019-05-20T12:47:38.149Z,4.27
2019-05-20T12:50:08.460Z,4.13
2019-05-20T12:52:37.592Z,5.37
2019-05-20T12:55:09.465Z,4.10
2019-05-20T12:57:38.395Z,4.80
2019-05-20T13:00:12.124Z,4.80
2019-05-20T13:02:43.151Z,3.93
2019-05-20T13:05:12.720Z,4.17
2019-05-20T13:07:41.855Z,4.40
2019-05-20T13:10:28.045Z,4.40
2019-05-20T13:12:42.474Z,4.30
2019-05-20T13:15:12.032Z,3.80
2019-05-20T13:17:44.696Z,3.83
2019-05-20T13:20:12.340Z,5.40
2019-05-20T13:22:41.469Z,4.57
2019-05-20T13:25:10.738Z,4.50
2019-05-20T13:27:39.854Z,4.83
2019-05-20T13:30:10.772Z,4.93
2019-05-20T13:32:39.897Z,4.60
2019-05-20T13:35:09.323Z,4.73
2019-05-20T13:37:38.447Z,4.40
2019-05-20T13:40:08.191Z,4.33
2019-05-20T13:42:37.724Z,5.00
2019-05-20T13:45:07.150Z,9.63
2019-05-20T13:47:36.205Z,6.37
2019-05-20T13:50:09.978Z,4.40
2019-05-20T13:52:39.034Z,4.67
2019-05-20T13:55:09.934Z,5.37
2019-05-20T13:57:39.177Z,5.77
2019-05-20T14:00:08.951Z,4.60
2019-05-20T14:02:38.165Z,4.40
2019-05-20T14:05:07.318Z,3.87
2019-05-20T14:07:36.592Z,4.00
2019-05-20T14:10:07.806Z,4.87
2019-05-20T14:12:37.032Z,5.07
2019-05-20T14:15:08.544Z,4.77
2019-05-20T14:17:39.486Z,3.93
2019-05-20T14:20:08.824Z,4.23
2019-05-20T14:22:38.052Z,4.27
2019-05-20T14:25:07.884Z,4.07
2019-05-20T14:27:37.236Z,4.17
2019-05-20T14:30:11.459Z,5.13
2019-05-20T14:32:40.903Z,5.73
2019-05-20T14:35:10.949Z,4.70
2019-05-20T14:37:40.191Z,10.30
2019-05-20T14:40:09.927Z,8.57
2019-05-20T14:42:39.395Z,5.10
2019-05-20T14:45:08.565Z,6.10
2019-05-20T14:47:37.899Z,4.30
2019-05-20T14:50:10.888Z,3.80
2019-05-20T14:52:40.234Z,3.57
2019-05-20T14:55:10.469Z,3.90
2019-05-20T14:57:39.883Z,4.03
2019-05-20T15:00:09.730Z,3.13
2019-05-20T15:02:39.072Z,4.70
2019-05-20T15:05:09.930Z,3.10
2019-05-20T15:07:39.079Z,2.80
2019-05-20T15:10:10.107Z,2.83
2019-05-20T15:12:39.364Z,5.73
2019-05-20T15:15:09.014Z,3.07
2019-05-20T15:17:38.421Z,2.47
2019-05-20T15:20:09.092Z,2.02
2019-05-20T15:22:38.716Z,2.75
2019-05-20T15:25:08.949Z,2.27
2019-05-20T15:27:38.701Z,2.10
2019-05-20T15:30:10.146Z,2.37
2019-05-20T15:32:39.589Z,2.10
2019-05-20T15:35:09.313Z,2.00
2019-05-20T15:37:38.931Z,2.20
2019-05-20T15:40:09.200Z,2.37
2019-05-20T15:42:38.710Z,2.10
2019-05-20T15:45:10.058Z,3.37
2019-05-20T15:47:39.671Z,2.80
2019-05-20T15:50:10.602Z,5.17
2019-05-20T15:52:40.496Z,4.78
2019-05-20T15:55:10.031Z,3.25
2019-05-20T15:57:39.632Z,2.87
2019-05-20T16:00:10.054Z,3.40
2019-05-20T16:02:39.632Z,3.20
2019-05-20T16:05:09.617Z,4.08
2019-05-20T16:07:39.219Z,5.50
2019-05-20T16:10:08.943Z,4.92
2019-05-20T16:12:38.479Z,5.17
2019-05-20T16:15:08.645Z,5.70
2019-05-20T16:17:38.269Z,5.20
2019-05-20T16:20:08.349Z,3.67
2019-05-20T16:22:37.787Z,4.10
2019-05-20T16:25:10.422Z,3.90
2019-05-20T16:27:39.867Z,3.50
2019-05-20T16:30:10.955Z,3.55
2019-05-20T16:32:40.506Z,3.08
2019-05-20T16:35:09.917Z,2.95
2019-05-20T16:37:39.373Z,4.20
2019-05-20T16:40:10.089Z,4.72
2019-05-20T16:42:39.747Z,3.67
2019-05-20T16:45:11.981Z,2.60
2019-05-20T16:47:40.654Z,2.75
2019-05-20T16:50:11.188Z,2.25
2019-05-20T16:52:40.612Z,2.90
2019-05-20T16:55:10.447Z,3.50
2019-05-20T16:57:39.898Z,5.15
2019-05-20T17:00:29.119Z,8.23
2019-05-20T17:02:40.870Z,5.22
2019-05-20T17:05:10.302Z,5.50
2019-05-20T17:07:39.754Z,4.92
2019-05-20T17:10:09.881Z,4.10
2019-05-20T17:12:39.336Z,2.92
2019-05-20T17:15:09.056Z,3.00
2019-05-20T17:17:38.494Z,2.87
2019-05-20T17:20:09.736Z,2.50
2019-05-20T17:22:39.368Z,2.72
2019-05-20T17:25:09.077Z,2.70
2019-05-20T17:27:38.511Z,2.40
2019-05-20T17:30:08.654Z,2.45
2019-05-20T17:32:38.115Z,2.05
2019-05-20T17:35:09.546Z,2.12
2019-05-20T17:37:55.554Z,2.50
2019-05-20T17:40:26.412Z,2.70
2019-05-20T17:42:55.842Z,2.60
2019-05-20T17:45:33.065Z,8.00
2019-05-20T17:48:07.525Z,5.90
2019-05-20T17:50:42.547Z,4.78
2019-05-20T17:53:11.966Z,2.52
2019-05-20T17:55:41.634Z,3.33
2019-05-20T17:58:11.073Z,3.20
2019-05-20T18:00:40.514Z,4.17
2019-05-20T18:03:09.963Z,4.25
2019-05-20T18:05:39.431Z,3.70
2019-05-20T18:08:08.844Z,3.70
2019-05-20T18:10:38.259Z,3.22
2019-05-20T18:13:07.696Z,2.90
2019-05-20T18:15:37.111Z,2.77
2019-05-20T18:18:06.559Z,4.10
2019-05-20T18:20:35.976Z,3.40
2019-05-20T18:23:05.427Z,3.37
2019-05-20T18:25:34.840Z,3.58
2019-05-20T18:28:04.683Z,3.10
2019-05-20T18:30:34.130Z,3.00
2019-05-20T18:33:03.604Z,3.10
2019-05-20T18:35:33.077Z,2.83
2019-05-20T18:38:02.744Z,2.60
2019-05-20T18:40:32.358Z,3.33
2019-05-20T18:43:01.714Z,2.77
2019-05-20T18:45:31.179Z,3.00
2019-05-20T18:48:00.690Z,2.80
2019-05-20T18:50:30.139Z,2.83
2019-05-20T18:52:59.606Z,3.33
2019-05-20T18:55:29.528Z,3.12
2019-05-20T18:57:58.944Z,3.67
2019-05-20T19:00:31.189Z,3.27
2019-05-20T19:03:00.600Z,3.00
2019-05-20T19:05:30.083Z,3.02
2019-05-20T19:07:59.534Z,3.15
2019-05-20T19:10:29.056Z,3.30
2019-05-20T19:12:58.497Z,3.42
2019-05-20T19:15:27.952Z,3.58
2019-05-20T19:17:57.384Z,3.45
2019-05-20T19:20:26.819Z,3.10
2019-05-20T19:22:56.271Z,3.40
2019-05-20T19:25:36.945Z,3.15
2019-05-20T19:27:56.896Z,3.15
2019-05-20T19:30:26.318Z,3.70
2019-05-20T19:32:55.769Z,3.30
2019-05-20T19:35:25.207Z,3.02
2019-05-20T19:37:54.647Z,3.20
2019-05-20T19:40:24.077Z,4.20
2019-05-20T19:42:53.505Z,3.80
2019-05-20T19:45:22.947Z,4.70
2019-05-20T19:47:52.397Z,4.33
2019-05-20T19:50:21.844Z,4.10
2019-05-20T19:52:51.349Z,4.62
2019-05-20T19:55:20.795Z,4.25
2019-05-20T19:57:50.216Z,4.03
2019-05-20T20:00:19.745Z,4.30
2019-05-20T20:02:49.263Z,3.90
2019-05-20T20:05:18.684Z,4.22
2019-05-20T20:07:48.113Z,3.90
2019-05-20T20:10:17.546Z,4.47
2019-05-20T20:12:46.985Z,4.35
2019-05-20T20:15:20.279Z,4.62
2019-05-20T20:17:49.698Z,4.17
2019-05-20T20:20:19.142Z,3.92
2019-05-20T20:22:48.568Z,3.83
2019-05-20T20:25:18.020Z,4.37
2019-05-20T20:27:47.430Z,4.03
2019-05-20T20:30:16.903Z,4.08
2019-05-20T20:32:46.346Z,4.00
2019-05-20T20:35:15.885Z,4.00
2019-05-20T20:37:45.306Z,4.60
2019-05-20T20:40:16.203Z,4.40
2019-05-20T20:42:45.557Z,4.95
2019-05-20T20:45:14.963Z,4.72
2019-05-20T20:47:44.397Z,4.80
2019-05-20T20:50:14.002Z,4.40
2019-05-20T20:52:43.419Z,4.50
2019-05-20T20:55:13.738Z,4.50
2019-05-20T20:57:43.361Z,4.35
2019-05-20T21:00:13.407Z,4.58
2019-05-20T21:02:52.967Z,5.10
2019-05-20T21:05:13.850Z,5.53
2019-05-20T21:07:43.273Z,4.90
2019-05-20T21:10:13.046Z,4.75
2019-05-20T21:12:42.509Z,5.17
2019-05-20T21:15:11.927Z,5.83
2019-05-20T21:17:41.299Z,5.95
2019-05-20T21:20:10.920Z,5.67
2019-05-20T21:22:40.356Z,5.60
2019-05-20T21:25:09.790Z,5.58
2019-05-20T21:27:39.219Z,5.62
2019-05-20T21:30:09.361Z,5.60
2019-05-20T21:32:38.794Z,5.83
2019-05-20T21:35:08.301Z,5.25
2019-05-20T21:37:37.655Z,6.03
2019-05-20T21:40:07.580Z,5.25
2019-05-20T21:42:36.927Z,5.70
2019-05-20T21:45:07.237Z,5.53
2019-05-20T21:47:36.666Z,5.12
2019-05-20T21:50:06.778Z,4.83
2019-05-20T21:52:36.220Z,5.40
2019-05-20T21:55:07.176Z,5.80
2019-05-20T21:57:36.539Z,5.95
2019-05-20T22:00:11.337Z,5.50
2019-05-20T22:02:40.698Z,5.87
2019-05-20T22:05:10.217Z,5.58
2019-05-20T22:07:39.587Z,5.80
2019-05-20T22:10:09.281Z,5.83
2019-05-20T22:12:38.633Z,5.95
2019-05-20T22:15:08.255Z,5.97
2019-05-20T22:17:37.677Z,6.40
2019-05-20T22:20:07.132Z,7.00
2019-05-20T22:22:38.143Z,7.00
2019-05-20T22:25:07.514Z,6.42
2019-05-20T22:27:36.951Z,6.55
2019-05-20T22:30:07.789Z,6.87
2019-05-20T22:32:37.216Z,6.83
2019-05-20T22:35:08.451Z,7.25
2019-05-20T22:37:37.824Z,8.03
2019-05-20T22:40:10.117Z,8.58
2019-05-20T22:42:39.466Z,7.40
2019-05-20T22:45:08.897Z,8.30
2019-05-20T22:47:38.249Z,8.30
2019-05-20T22:50:07.782Z,8.80
2019-05-20T22:52:37.221Z,9.08
2019-05-20T22:55:07.056Z,8.63
2019-05-20T22:57:36.468Z,9.50
2019-05-20T23:00:06.989Z,9.80
2019-05-20T23:02:36.438Z,9.80
2019-05-20T23:05:05.885Z,9.23
2019-05-20T23:07:35.308Z,9.23
2019-05-20T23:10:07.467Z,9.30
2019-05-20T23:12:36.907Z,8.55
2019-05-20T23:15:07.637Z,8.95
2019-05-20T23:17:37.055Z,9.13
2019-05-20T23:20:07.875Z,9.83
2019-05-20T23:22:37.227Z,9.45
2019-05-20T23:25:06.748Z,9.70
2019-05-20T23:27:36.182Z,10.13
2019-05-20T23:30:07.284Z,10.05
2019-05-20T23:32:36.642Z,10.05
2019-05-20T23:35:07.487Z,11.12
2019-05-20T23:37:36.922Z,10.88
2019-05-20T23:40:07.951Z,11.55
2019-05-20T23:42:37.314Z,10.48
2019-05-20T23:45:08.434Z,11.18
2019-05-20T23:47:37.847Z,10.23
2019-05-20T23:50:07.863Z,10.98
2019-05-20T23:52:37.259Z,10.48
2019-05-20T23:55:08.497Z,10.40
2019-05-20T23:57:37.864Z,10.60
